Terminal Aerodrome Forecast
Issued by NWS St Louis, MO

Home | Current Version | Previous Version | Graphics & Text | Print | Product List | Glossary On
Versions: 1 2 3 4 5 6 7 8 9 10 11 12 13 14 15 16 17 18 19 20 21 22 23 24 25 26
420
FTUS43 KLSX 141506 AAA
TAFSTL
TAF AMD
KSTL 141506Z 1415/1518 02007KT P6SM OVC028
     FM142000 33004KT P6SM OVC035
     FM151400 27005KT P6SM SCT025=

USA.gov is the U.S. government's official web portal to all federal, state and local government web resources and services.